Squamish, Canada
Current Conditions -  °F | °C
As of 5:00 PM on Sunday 21 Dec 2014 (Local Time) from CWAE Reporting Station
Overcast Overcast  
Wind Chill: 37°   Ceiling: 4100
Heat Index: 37°   Visibility: 15mi
Dew Point: 36°   Wind: 0mph
Humidity: 93%   Direction: NA
Pressure: 29.87"   Gusts: NA
Location:  49.7°N, 123.15°W
Report Text: CWAE 220100Z 00000KT 15SM FEW020 BKN041 OVC053 03/02 A2987 RMK SC2SC4SC2 LAST OBS/NEXT 221500UTC SLP132
Loading
Personal Weather Stations






























Interactive Weather Map New forecast layout! Learn more

10-Day Weather Forecast

Advertisements
Track Severe Weather on mobile